Shagang Hongfa — 9V9138 — position and weather

sailwx.info

Track history (hours):
 
Tides and Currents Weather Stations Pressure Air Temp Water Temp Dewpoint Dewpoint Depression Visibility Wind Speed Wind Dir Waves Ship Positions

Shagang Hongfa

Last reported at 2014-Sep-17 05:21 UTC. Time now 2014-Sep-18 05:46 UTC.
Position N 22°32' E 120°21'.

Length 292 m; draft 15.1 m.

Type: Cargo ship. MMSI: 566178000.

Date/timePositionNaut miles runAvg speedWind from/ knotsBaromVisibWave heightAir tempDewpointWater temp
2014-Sep-17 05:21N 22°32' E 120°21'0 0.0
2014-Sep-15 08:09N 22°32' E 120°21'0 0.0
2014-Sep-15 06:18N 22°32' E 120°21'1 1.7
2014-Sep-15 05:33N 22°33' E 120°20'4 4.3
2014-Sep-15 04:33N 22°32' E 120°15'1 0.7
2014-Sep-15 03:13N 22°31' E 120°15'0 0.0
2014-Sep-15 02:25N 22°31' E 120°15'0 0.1
2014-Sep-15 01:31N 22°31' E 120°15'0 0.1
2014-Sep-15 00:31N 22°31' E 120°15'0 0.1
2014-Sep-14 23:31N 22°31' E 120°15'0 0.1
2014-Sep-14 22:25N 22°31' E 120°15'0 0.2
2014-Sep-14 21:31N 22°31' E 120°15'1 1.1
2014-Sep-14 20:33N 22°32' E 120°15'5 5.3
2014-Sep-14 19:33N 22°29' E 120°10'5 5.3
2014-Sep-14 18:33N 22°25' E 120°07'1110.5
2014-Sep-14 17:33N 22°14' E 120°06'1010.2
2014-Sep-14 16:33N 22°04' E 120°05'  
Track history (hours):
 
Tides and Currents Weather Stations Pressure Air Temp Water Temp Dewpoint Dewpoint Depression Visibility Wind Speed Wind Dir Waves Ship Positions

Shagang Hongfa

Last reported at 2014-Sep-17 05:21 UTC. Time now 2014-Sep-18 05:46 UTC.
Position N 22°32' E 120°21'.

Length 292 m; draft 15.1 m.

Type: Cargo ship. MMSI: 566178000.

Date/timePositionNaut miles runAvg speedWind from/ knotsBaromVisibWave heightAir tempDewpointWater temp
2014-Sep-17 05:21N 22°32' E 120°21'0 0.0
2014-Sep-15 08:09N 22°32' E 120°21'0 0.0
2014-Sep-15 06:18N 22°32' E 120°21'1 1.7
2014-Sep-15 05:33N 22°33' E 120°20'4 4.3
2014-Sep-15 04:33N 22°32' E 120°15'1 0.7
2014-Sep-15 03:13N 22°31' E 120°15'0 0.0
2014-Sep-15 02:25N 22°31' E 120°15'0 0.1
2014-Sep-15 01:31N 22°31' E 120°15'0 0.1
2014-Sep-15 00:31N 22°31' E 120°15'0 0.1
2014-Sep-14 23:31N 22°31' E 120°15'0 0.1
2014-Sep-14 22:25N 22°31' E 120°15'0 0.2
2014-Sep-14 21:31N 22°31' E 120°15'1 1.1
2014-Sep-14 20:33N 22°32' E 120°15'5 5.3
2014-Sep-14 19:33N 22°29' E 120°10'5 5.3
2014-Sep-14 18:33N 22°25' E 120°07'1110.5
2014-Sep-14 17:33N 22°14' E 120°06'1010.2
2014-Sep-14 16:33N 22°04' E 120°05'  

Dump ship's entire track history